sensor_id;sensor_type;location;lat;lon;timestamp;P1;durP1;ratioP1;P2;durP2;ratioP2
75768;SDS011;64379;48.888;8.330;2023-01-26T00:01:42;27.35;;;12.30;;
75768;SDS011;64379;48.888;8.330;2023-01-26T00:04:08;25.92;;;11.32;;
75768;SDS011;64379;48.888;8.330;2023-01-26T00:06:34;25.58;;;11.35;;
75768;SDS011;64379;48.888;8.330;2023-01-26T00:09:00;30.55;;;12.02;;
75768;SDS011;64379;48.888;8.330;2023-01-26T00:11:26;28.20;;;11.43;;
75768;SDS011;64379;48.888;8.330;2023-01-26T00:13:54;30.30;;;12.63;;
75768;SDS011;64379;48.888;8.330;2023-01-26T00:16:20;26.27;;;11.38;;
75768;SDS011;64379;48.888;8.330;2023-01-26T00:18:46;27.23;;;11.73;;
75768;SDS011;64379;48.888;8.330;2023-01-26T00:21:13;27.48;;;11.98;;
75768;SDS011;64379;48.888;8.330;2023-01-26T00:23:40;28.88;;;12.32;;
75768;SDS011;64379;48.888;8.330;2023-01-26T00:26:07;29.58;;;12.30;;
75768;SDS011;64379;48.888;8.330;2023-01-26T00:28:34;29.98;;;11.82;;
75768;SDS011;64379;48.888;8.330;2023-01-26T00:31:03;32.00;;;13.00;;
75768;SDS011;64379;48.888;8.330;2023-01-26T00:33:30;33.08;;;12.23;;
75768;SDS011;64379;48.888;8.330;2023-01-26T00:35:56;29.00;;;11.98;;
75768;SDS011;64379;48.888;8.330;2023-01-26T00:38:21;28.08;;;11.32;;
75768;SDS011;64379;48.888;8.330;2023-01-26T00:40:47;27.70;;;11.48;;
75768;SDS011;64379;48.888;8.330;2023-01-26T00:43:13;26.50;;;11.75;;
75768;SDS011;64379;48.888;8.330;2023-01-26T00:45:38;29.50;;;12.05;;
75768;SDS011;64379;48.888;8.330;2023-01-26T00:48:04;29.90;;;12.57;;
75768;SDS011;64379;48.888;8.330;2023-01-26T00:50:30;31.67;;;11.80;;
75768;SDS011;64379;48.888;8.330;2023-01-26T00:52:57;32.00;;;12.70;;
75768;SDS011;64379;48.888;8.330;2023-01-26T00:55:23;29.35;;;12.23;;
75768;SDS011;64379;48.888;8.330;2023-01-26T00:57:49;30.27;;;12.00;;
75768;SDS011;64379;48.888;8.330;2023-01-26T01:00:15;20.08;;;9.15;;
75768;SDS011;64379;48.888;8.330;2023-01-26T01:02:42;27.08;;;11.27;;
75768;SDS011;64379;48.888;8.330;2023-01-26T01:05:08;28.90;;;12.80;;
75768;SDS011;64379;48.888;8.330;2023-01-26T01:07:34;30.63;;;12.65;;
75768;SDS011;64379;48.888;8.330;2023-01-26T01:09:59;30.27;;;12.60;;
75768;SDS011;64379;48.888;8.330;2023-01-26T01:12:26;33.13;;;12.30;;
75768;SDS011;64379;48.888;8.330;2023-01-26T01:14:51;27.52;;;11.90;;
75768;SDS011;64379;48.888;8.330;2023-01-26T01:17:17;29.63;;;12.65;;
75768;SDS011;64379;48.888;8.330;2023-01-26T01:19:43;29.98;;;11.98;;
75768;SDS011;64379;48.888;8.330;2023-01-26T01:22:08;28.92;;;12.40;;
75768;SDS011;64379;48.888;8.330;2023-01-26T01:24:34;32.20;;;12.73;;
75768;SDS011;64379;48.888;8.330;2023-01-26T01:27:00;32.55;;;12.38;;
75768;SDS011;64379;48.888;8.330;2023-01-26T01:29:26;28.02;;;11.90;;
75768;SDS011;64379;48.888;8.330;2023-01-26T01:31:52;28.88;;;13.02;;
75768;SDS011;64379;48.888;8.330;2023-01-26T01:34:17;27.65;;;11.77;;
75768;SDS011;64379;48.888;8.330;2023-01-26T01:36:43;31.98;;;13.20;;
75768;SDS011;64379;48.888;8.330;2023-01-26T01:39:08;29.70;;;13.23;;
75768;SDS011;64379;48.888;8.330;2023-01-26T01:41:34;32.08;;;13.00;;
75768;SDS011;64379;48.888;8.330;2023-01-26T01:44:14;31.27;;;13.27;;
75768;SDS011;64379;48.888;8.330;2023-01-26T01:46:42;31.27;;;12.77;;
75768;SDS011;64379;48.888;8.330;2023-01-26T01:52:05;36.55;;;13.45;;
75768;SDS011;64379;48.888;8.330;2023-01-26T01:54:51;30.15;;;11.85;;
75768;SDS011;64379;48.888;8.330;2023-01-26T01:57:22;31.23;;;12.45;;
75768;SDS011;64379;48.888;8.330;2023-01-26T02:00:08;27.92;;;11.70;;
75768;SDS011;64379;48.888;8.330;2023-01-26T02:02:37;25.55;;;11.73;;
75768;SDS011;64379;48.888;8.330;2023-01-26T02:05:11;27.98;;;11.32;;
75768;SDS011;64379;48.888;8.330;2023-01-26T02:07:43;27.23;;;12.38;;
75768;SDS011;64379;48.888;8.330;2023-01-26T02:10:09;26.73;;;11.50;;
75768;SDS011;64379;48.888;8.330;2023-01-26T02:12:44;30.92;;;13.20;;
75768;SDS011;64379;48.888;8.330;2023-01-26T02:15:11;31.88;;;12.35;;
75768;SDS011;64379;48.888;8.330;2023-01-26T02:17:38;26.85;;;12.05;;
75768;SDS011;64379;48.888;8.330;2023-01-26T02:20:07;31.63;;;12.73;;
75768;SDS011;64379;48.888;8.330;2023-01-26T02:25:01;26.77;;;11.70;;
75768;SDS011;64379;48.888;8.330;2023-01-26T02:27:32;28.92;;;12.65;;
75768;SDS011;64379;48.888;8.330;2023-01-26T02:29:58;28.38;;;11.88;;
75768;SDS011;64379;48.888;8.330;2023-01-26T02:32:26;28.52;;;12.02;;
75768;SDS011;64379;48.888;8.330;2023-01-26T02:34:55;29.02;;;12.15;;
75768;SDS011;64379;48.888;8.330;2023-01-26T02:37:21;27.42;;;11.98;;
75768;SDS011;64379;48.888;8.330;2023-01-26T02:42:48;26.13;;;11.50;;
75768;SDS011;64379;48.888;8.330;2023-01-26T02:45:14;30.17;;;12.93;;
75768;SDS011;64379;48.888;8.330;2023-01-26T02:47:41;30.30;;;12.63;;
75768;SDS011;64379;48.888;8.330;2023-01-26T02:50:08;30.50;;;12.75;;
75768;SDS011;64379;48.888;8.330;2023-01-26T02:52:35;34.95;;;14.13;;
75768;SDS011;64379;48.888;8.330;2023-01-26T02:55:02;31.75;;;12.90;;
75768;SDS011;64379;48.888;8.330;2023-01-26T02:57:46;31.38;;;12.68;;
75768;SDS011;64379;48.888;8.330;2023-01-26T03:00:14;27.65;;;11.27;;
75768;SDS011;64379;48.888;8.330;2023-01-26T03:02:42;28.38;;;11.32;;
75768;SDS011;64379;48.888;8.330;2023-01-26T03:05:09;33.03;;;12.27;;
75768;SDS011;64379;48.888;8.330;2023-01-26T03:07:35;34.05;;;13.00;;
75768;SDS011;64379;48.888;8.330;2023-01-26T03:10:00;34.35;;;12.93;;
75768;SDS011;64379;48.888;8.330;2023-01-26T03:12:26;32.45;;;13.65;;
75768;SDS011;64379;48.888;8.330;2023-01-26T03:14:53;31.20;;;12.77;;
75768;SDS011;64379;48.888;8.330;2023-01-26T03:20:08;25.67;;;11.10;;
75768;SDS011;64379;48.888;8.330;2023-01-26T03:22:53;28.30;;;11.68;;
75768;SDS011;64379;48.888;8.330;2023-01-26T03:25:37;25.33;;;11.07;;
75768;SDS011;64379;48.888;8.330;2023-01-26T03:28:21;30.77;;;11.90;;
75768;SDS011;64379;48.888;8.330;2023-01-26T03:30:47;29.92;;;12.20;;
75768;SDS011;64379;48.888;8.330;2023-01-26T03:33:14;29.70;;;13.98;;
75768;SDS011;64379;48.888;8.330;2023-01-26T03:35:40;31.40;;;12.75;;
75768;SDS011;64379;48.888;8.330;2023-01-26T03:38:05;31.52;;;12.82;;
75768;SDS011;64379;48.888;8.330;2023-01-26T03:40:31;33.03;;;13.13;;
75768;SDS011;64379;48.888;8.330;2023-01-26T03:43:15;30.10;;;13.15;;
75768;SDS011;64379;48.888;8.330;2023-01-26T03:46:01;38.00;;;14.45;;
75768;SDS011;64379;48.888;8.330;2023-01-26T03:48:46;29.40;;;11.65;;
75768;SDS011;64379;48.888;8.330;2023-01-26T03:51:30;30.35;;;12.52;;
75768;SDS011;64379;48.888;8.330;2023-01-26T03:54:15;31.02;;;11.85;;
75768;SDS011;64379;48.888;8.330;2023-01-26T03:56:59;32.97;;;12.55;;
75768;SDS011;64379;48.888;8.330;2023-01-26T03:59:24;32.20;;;13.32;;
75768;SDS011;64379;48.888;8.330;2023-01-26T04:02:06;34.13;;;13.10;;
75768;SDS011;64379;48.888;8.330;2023-01-26T04:04:54;32.60;;;11.60;;
75768;SDS011;64379;48.888;8.330;2023-01-26T04:07:39;30.65;;;11.77;;
75768;SDS011;64379;48.888;8.330;2023-01-26T04:10:23;31.90;;;13.02;;
75768;SDS011;64379;48.888;8.330;2023-01-26T04:12:50;28.83;;;11.50;;
75768;SDS011;64379;48.888;8.330;2023-01-26T04:15:35;32.22;;;11.50;;
75768;SDS011;64379;48.888;8.330;2023-01-26T04:18:19;30.42;;;11.27;;
75768;SDS011;64379;48.888;8.330;2023-01-26T04:21:04;31.55;;;12.15;;
75768;SDS011;64379;48.888;8.330;2023-01-26T04:23:48;32.83;;;12.70;;
75768;SDS011;64379;48.888;8.330;2023-01-26T04:26:15;30.17;;;11.82;;
75768;SDS011;64379;48.888;8.330;2023-01-26T04:28:41;30.42;;;11.15;;
75768;SDS011;64379;48.888;8.330;2023-01-26T04:31:06;29.73;;;12.00;;
75768;SDS011;64379;48.888;8.330;2023-01-26T04:33:32;33.10;;;12.27;;
75768;SDS011;64379;48.888;8.330;2023-01-26T04:36:02;30.67;;;12.20;;
75768;SDS011;64379;48.888;8.330;2023-01-26T04:38:31;31.55;;;12.45;;
75768;SDS011;64379;48.888;8.330;2023-01-26T04:40:57;28.02;;;10.98;;
75768;SDS011;64379;48.888;8.330;2023-01-26T04:43:23;30.98;;;12.45;;
75768;SDS011;64379;48.888;8.330;2023-01-26T04:48:24;32.58;;;11.95;;
75768;SDS011;64379;48.888;8.330;2023-01-26T04:50:54;33.00;;;12.23;;
75768;SDS011;64379;48.888;8.330;2023-01-26T04:53:21;34.40;;;13.43;;
75768;SDS011;64379;48.888;8.330;2023-01-26T04:55:47;30.00;;;11.95;;
75768;SDS011;64379;48.888;8.330;2023-01-26T04:58:12;31.38;;;12.35;;
75768;SDS011;64379;48.888;8.330;2023-01-26T05:00:38;35.03;;;12.88;;
75768;SDS011;64379;48.888;8.330;2023-01-26T05:03:03;29.45;;;11.80;;
75768;SDS011;64379;48.888;8.330;2023-01-26T05:05:29;31.33;;;12.18;;
75768;SDS011;64379;48.888;8.330;2023-01-26T05:07:54;33.03;;;11.95;;
75768;SDS011;64379;48.888;8.330;2023-01-26T05:10:20;28.52;;;12.07;;
75768;SDS011;64379;48.888;8.330;2023-01-26T05:12:46;29.92;;;11.63;;
75768;SDS011;64379;48.888;8.330;2023-01-26T05:15:11;30.52;;;11.65;;
75768;SDS011;64379;48.888;8.330;2023-01-26T05:17:37;34.58;;;12.73;;
75768;SDS011;64379;48.888;8.330;2023-01-26T05:20:02;31.38;;;11.45;;
75768;SDS011;64379;48.888;8.330;2023-01-26T05:22:28;33.97;;;13.00;;
75768;SDS011;64379;48.888;8.330;2023-01-26T05:24:54;30.27;;;12.18;;
75768;SDS011;64379;48.888;8.330;2023-01-26T05:27:19;34.00;;;13.73;;
75768;SDS011;64379;48.888;8.330;2023-01-26T05:29:45;35.00;;;13.30;;
75768;SDS011;64379;48.888;8.330;2023-01-26T05:32:11;36.80;;;13.75;;
75768;SDS011;64379;48.888;8.330;2023-01-26T05:34:37;34.65;;;13.88;;
75768;SDS011;64379;48.888;8.330;2023-01-26T05:37:03;30.85;;;12.63;;
75768;SDS011;64379;48.888;8.330;2023-01-26T05:39:29;33.85;;;12.48;;
75768;SDS011;64379;48.888;8.330;2023-01-26T05:41:54;34.55;;;12.93;;
75768;SDS011;64379;48.888;8.330;2023-01-26T05:44:21;31.63;;;12.55;;
75768;SDS011;64379;48.888;8.330;2023-01-26T05:46:48;33.45;;;12.82;;
75768;SDS011;64379;48.888;8.330;2023-01-26T05:49:14;35.05;;;13.57;;
75768;SDS011;64379;48.888;8.330;2023-01-26T05:51:40;34.35;;;13.00;;
75768;SDS011;64379;48.888;8.330;2023-01-26T05:54:05;34.28;;;13.23;;
75768;SDS011;64379;48.888;8.330;2023-01-26T05:56:31;36.50;;;12.73;;
75768;SDS011;64379;48.888;8.330;2023-01-26T05:58:56;29.90;;;11.30;;
75768;SDS011;64379;48.888;8.330;2023-01-26T06:01:22;32.85;;;12.63;;
75768;SDS011;64379;48.888;8.330;2023-01-26T06:03:48;33.38;;;12.93;;
75768;SDS011;64379;48.888;8.330;2023-01-26T06:06:13;34.05;;;12.73;;
75768;SDS011;64379;48.888;8.330;2023-01-26T06:08:39;34.55;;;13.73;;
75768;SDS011;64379;48.888;8.330;2023-01-26T06:11:04;33.83;;;12.98;;
75768;SDS011;64379;48.888;8.330;2023-01-26T06:13:30;33.22;;;13.35;;
75768;SDS011;64379;48.888;8.330;2023-01-26T06:15:55;33.17;;;12.25;;
75768;SDS011;64379;48.888;8.330;2023-01-26T06:18:25;33.35;;;13.30;;
75768;SDS011;64379;48.888;8.330;2023-01-26T06:20:51;32.22;;;12.68;;
75768;SDS011;64379;48.888;8.330;2023-01-26T06:23:16;39.05;;;13.80;;
75768;SDS011;64379;48.888;8.330;2023-01-26T06:25:42;32.58;;;12.57;;
75768;SDS011;64379;48.888;8.330;2023-01-26T06:28:07;37.72;;;14.15;;
75768;SDS011;64379;48.888;8.330;2023-01-26T06:30:33;30.13;;;12.32;;
75768;SDS011;64379;48.888;8.330;2023-01-26T06:32:59;32.90;;;12.93;;
75768;SDS011;64379;48.888;8.330;2023-01-26T06:35:24;32.70;;;11.80;;
75768;SDS011;64379;48.888;8.330;2023-01-26T06:37:50;35.83;;;12.90;;
75768;SDS011;64379;48.888;8.330;2023-01-26T06:40:17;34.05;;;12.63;;
75768;SDS011;64379;48.888;8.330;2023-01-26T06:42:47;34.95;;;12.05;;
75768;SDS011;64379;48.888;8.330;2023-01-26T06:45:14;32.22;;;12.48;;
75768;SDS011;64379;48.888;8.330;2023-01-26T06:47:43;31.27;;;12.88;;
75768;SDS011;64379;48.888;8.330;2023-01-26T06:50:10;40.83;;;14.57;;
75768;SDS011;64379;48.888;8.330;2023-01-26T06:52:36;34.65;;;14.05;;
75768;SDS011;64379;48.888;8.330;2023-01-26T06:55:08;37.28;;;13.52;;
75768;SDS011;64379;48.888;8.330;2023-01-26T06:57:44;36.08;;;13.30;;
75768;SDS011;64379;48.888;8.330;2023-01-26T07:00:10;41.17;;;14.18;;
75768;SDS011;64379;48.888;8.330;2023-01-26T07:02:37;37.13;;;13.43;;
75768;SDS011;64379;48.888;8.330;2023-01-26T07:05:03;36.40;;;13.57;;
75768;SDS011;64379;48.888;8.330;2023-01-26T07:07:29;40.83;;;13.25;;
75768;SDS011;64379;48.888;8.330;2023-01-26T07:09:54;38.08;;;13.45;;
75768;SDS011;64379;48.888;8.330;2023-01-26T07:12:20;32.25;;;12.82;;
75768;SDS011;64379;48.888;8.330;2023-01-26T07:14:46;32.10;;;12.93;;
75768;SDS011;64379;48.888;8.330;2023-01-26T07:17:11;38.90;;;13.25;;
75768;SDS011;64379;48.888;8.330;2023-01-26T07:19:37;33.35;;;12.52;;
75768;SDS011;64379;48.888;8.330;2023-01-26T07:22:03;33.70;;;11.65;;
75768;SDS011;64379;48.888;8.330;2023-01-26T07:24:29;33.78;;;12.18;;
75768;SDS011;64379;48.888;8.330;2023-01-26T07:26:55;37.60;;;13.60;;
75768;SDS011;64379;48.888;8.330;2023-01-26T07:29:21;34.42;;;13.43;;
75768;SDS011;64379;48.888;8.330;2023-01-26T07:31:47;36.00;;;13.25;;
75768;SDS011;64379;48.888;8.330;2023-01-26T07:34:12;36.42;;;12.23;;
75768;SDS011;64379;48.888;8.330;2023-01-26T07:36:38;37.65;;;12.82;;
75768;SDS011;64379;48.888;8.330;2023-01-26T07:39:04;38.88;;;12.73;;
75768;SDS011;64379;48.888;8.330;2023-01-26T07:41:30;32.65;;;11.85;;
75768;SDS011;64379;48.888;8.330;2023-01-26T07:43:56;34.67;;;12.30;;
75768;SDS011;64379;48.888;8.330;2023-01-26T07:46:21;37.47;;;13.80;;
75768;SDS011;64379;48.888;8.330;2023-01-26T07:48:48;35.10;;;13.32;;
75768;SDS011;64379;48.888;8.330;2023-01-26T07:51:14;41.33;;;12.40;;
75768;SDS011;64379;48.888;8.330;2023-01-26T07:53:40;35.50;;;12.07;;
75768;SDS011;64379;48.888;8.330;2023-01-26T07:56:14;30.58;;;11.60;;
75768;SDS011;64379;48.888;8.330;2023-01-26T07:58:41;35.20;;;12.75;;
75768;SDS011;64379;48.888;8.330;2023-01-26T08:01:11;31.38;;;11.45;;
75768;SDS011;64379;48.888;8.330;2023-01-26T08:03:38;32.38;;;11.95;;
75768;SDS011;64379;48.888;8.330;2023-01-26T08:06:04;35.95;;;12.32;;
75768;SDS011;64379;48.888;8.330;2023-01-26T08:08:30;37.50;;;11.65;;
75768;SDS011;64379;48.888;8.330;2023-01-26T08:10:57;34.05;;;12.13;;
75768;SDS011;64379;48.888;8.330;2023-01-26T08:13:24;35.80;;;12.15;;
75768;SDS011;64379;48.888;8.330;2023-01-26T08:15:50;34.50;;;13.10;;
75768;SDS011;64379;48.888;8.330;2023-01-26T08:18:16;33.00;;;11.63;;
75768;SDS011;64379;48.888;8.330;2023-01-26T08:20:47;34.47;;;11.68;;
75768;SDS011;64379;48.888;8.330;2023-01-26T08:23:14;36.20;;;12.15;;
75768;SDS011;64379;48.888;8.330;2023-01-26T08:25:39;36.22;;;12.80;;
75768;SDS011;64379;48.888;8.330;2023-01-26T08:28:05;31.60;;;10.60;;
75768;SDS011;64379;48.888;8.330;2023-01-26T08:30:31;35.92;;;11.63;;
75768;SDS011;64379;48.888;8.330;2023-01-26T08:32:56;35.30;;;11.82;;
75768;SDS011;64379;48.888;8.330;2023-01-26T08:35:22;38.83;;;12.80;;
75768;SDS011;64379;48.888;8.330;2023-01-26T08:37:48;35.83;;;11.77;;
75768;SDS011;64379;48.888;8.330;2023-01-26T08:40:13;35.05;;;12.80;;
75768;SDS011;64379;48.888;8.330;2023-01-26T08:42:40;37.90;;;12.27;;
75768;SDS011;64379;48.888;8.330;2023-01-26T08:45:06;37.22;;;12.18;;
75768;SDS011;64379;48.888;8.330;2023-01-26T08:47:32;36.17;;;13.13;;
75768;SDS011;64379;48.888;8.330;2023-01-26T08:49:57;37.35;;;12.88;;
75768;SDS011;64379;48.888;8.330;2023-01-26T08:52:23;35.33;;;11.85;;
75768;SDS011;64379;48.888;8.330;2023-01-26T08:54:48;36.13;;;11.93;;
75768;SDS011;64379;48.888;8.330;2023-01-26T08:57:14;39.83;;;12.93;;
75768;SDS011;64379;48.888;8.330;2023-01-26T08:59:40;21.05;;;8.23;;
75768;SDS011;64379;48.888;8.330;2023-01-26T09:02:07;36.97;;;12.57;;
75768;SDS011;64379;48.888;8.330;2023-01-26T09:04:34;37.10;;;13.05;;
75768;SDS011;64379;48.888;8.330;2023-01-26T09:07:00;32.97;;;11.82;;
75768;SDS011;64379;48.888;8.330;2023-01-26T09:09:25;37.33;;;12.48;;
75768;SDS011;64379;48.888;8.330;2023-01-26T09:11:53;32.22;;;11.93;;
75768;SDS011;64379;48.888;8.330;2023-01-26T09:14:19;33.05;;;10.55;;
75768;SDS011;64379;48.888;8.330;2023-01-26T09:16:45;30.90;;;11.23;;
75768;SDS011;64379;48.888;8.330;2023-01-26T09:19:10;34.58;;;12.15;;
75768;SDS011;64379;48.888;8.330;2023-01-26T09:21:36;33.80;;;11.38;;
75768;SDS011;64379;48.888;8.330;2023-01-26T09:24:02;32.97;;;11.43;;
75768;SDS011;64379;48.888;8.330;2023-01-26T09:26:28;29.05;;;11.25;;
75768;SDS011;64379;48.888;8.330;2023-01-26T09:28:55;32.75;;;10.65;;
75768;SDS011;64379;48.888;8.330;2023-01-26T09:31:20;32.15;;;11.85;;
75768;SDS011;64379;48.888;8.330;2023-01-26T09:33:47;27.83;;;10.95;;
75768;SDS011;64379;48.888;8.330;2023-01-26T09:36:14;34.70;;;11.45;;
75768;SDS011;64379;48.888;8.330;2023-01-26T09:38:39;33.17;;;11.38;;
75768;SDS011;64379;48.888;8.330;2023-01-26T09:41:06;23.13;;;8.18;;
75768;SDS011;64379;48.888;8.330;2023-01-26T09:43:42;20.58;;;6.88;;
75768;SDS011;64379;48.888;8.330;2023-01-26T09:51:53;19.90;;;7.55;;
75768;SDS011;64379;48.888;8.330;2023-01-26T09:56:53;23.98;;;8.65;;
75768;SDS011;64379;48.888;8.330;2023-01-26T10:02:12;19.30;;;7.55;;
75768;SDS011;64379;48.888;8.330;2023-01-26T10:04:39;19.50;;;7.85;;
75768;SDS011;64379;48.888;8.330;2023-01-26T10:07:13;16.45;;;6.70;;
75768;SDS011;64379;48.888;8.330;2023-01-26T10:09:39;14.50;;;5.72;;
75768;SDS011;64379;48.888;8.330;2023-01-26T10:14:50;16.63;;;6.45;;
75768;SDS011;64379;48.888;8.330;2023-01-26T10:17:25;15.70;;;6.22;;
75768;SDS011;64379;48.888;8.330;2023-01-26T10:19:58;17.75;;;6.97;;
75768;SDS011;64379;48.888;8.330;2023-01-26T10:22:29;16.83;;;6.78;;
75768;SDS011;64379;48.888;8.330;2023-01-26T10:25:02;20.75;;;7.78;;
75768;SDS011;64379;48.888;8.330;2023-01-26T10:27:43;17.88;;;6.90;;
75768;SDS011;64379;48.888;8.330;2023-01-26T10:30:13;20.98;;;7.00;;
75768;SDS011;64379;48.888;8.330;2023-01-26T10:32:41;21.80;;;7.10;;
75768;SDS011;64379;48.888;8.330;2023-01-26T10:35:18;20.65;;;7.82;;
75768;SDS011;64379;48.888;8.330;2023-01-26T10:37:46;19.10;;;7.07;;
75768;SDS011;64379;48.888;8.330;2023-01-26T10:40:12;14.90;;;6.90;;
75768;SDS011;64379;48.888;8.330;2023-01-26T10:42:38;18.60;;;7.57;;
75768;SDS011;64379;48.888;8.330;2023-01-26T10:45:06;20.45;;;7.28;;
75768;SDS011;64379;48.888;8.330;2023-01-26T10:48:02;13.95;;;5.60;;
75768;SDS011;64379;48.888;8.330;2023-01-26T10:50:29;18.40;;;6.63;;
75768;SDS011;64379;48.888;8.330;2023-01-26T10:53:02;18.30;;;6.90;;
75768;SDS011;64379;48.888;8.330;2023-01-26T10:55:30;18.00;;;7.30;;
75768;SDS011;64379;48.888;8.330;2023-01-26T10:57:57;17.23;;;6.85;;
75768;SDS011;64379;48.888;8.330;2023-01-26T11:00:24;18.88;;;7.57;;
75768;SDS011;64379;48.888;8.330;2023-01-26T11:02:53;17.23;;;6.85;;
75768;SDS011;64379;48.888;8.330;2023-01-26T11:05:24;14.00;;;6.15;;
75768;SDS011;64379;48.888;8.330;2023-01-26T11:07:51;20.50;;;6.78;;
75768;SDS011;64379;48.888;8.330;2023-01-26T11:13:04;14.27;;;6.03;;
75768;SDS011;64379;48.888;8.330;2023-01-26T11:15:37;17.65;;;7.50;;
75768;SDS011;64379;48.888;8.330;2023-01-26T11:18:14;15.20;;;6.63;;
75768;SDS011;64379;48.888;8.330;2023-01-26T11:40:29;14.80;;;6.78;;
75768;SDS011;64379;48.888;8.330;2023-01-26T12:00:42;16.35;;;6.65;;
75768;SDS011;64379;48.888;8.330;2023-01-26T12:03:24;16.85;;;6.88;;
75768;SDS011;64379;48.888;8.330;2023-01-26T12:06:06;15.80;;;6.53;;
75768;SDS011;64379;48.888;8.330;2023-01-26T12:08:39;13.75;;;6.00;;
75768;SDS011;64379;48.888;8.330;2023-01-26T12:11:08;14.10;;;6.10;;
75768;SDS011;64379;48.888;8.330;2023-01-26T12:16:43;16.25;;;6.60;;
75768;SDS011;64379;48.888;8.330;2023-01-26T12:19:47;14.68;;;6.43;;
75768;SDS011;64379;48.888;8.330;2023-01-26T12:25:00;16.83;;;6.55;;
75768;SDS011;64379;48.888;8.330;2023-01-26T12:27:48;15.30;;;6.70;;
75768;SDS011;64379;48.888;8.330;2023-01-26T12:30:42;13.88;;;5.80;;
75768;SDS011;64379;48.888;8.330;2023-01-26T12:33:27;11.93;;;5.35;;
75768;SDS011;64379;48.888;8.330;2023-01-26T12:41:12;9.45;;;4.57;;
75768;SDS011;64379;48.888;8.330;2023-01-26T12:46:34;9.88;;;4.25;;
75768;SDS011;64379;48.888;8.330;2023-01-26T12:49:26;11.93;;;5.22;;
75768;SDS011;64379;48.888;8.330;2023-01-26T12:51:54;10.93;;;4.43;;
75768;SDS011;64379;48.888;8.330;2023-01-26T12:56:51;10.43;;;4.07;;
75768;SDS011;64379;48.888;8.330;2023-01-26T12:59:38;10.35;;;5.18;;
75768;SDS011;64379;48.888;8.330;2023-01-26T13:02:09;10.40;;;4.70;;
75768;SDS011;64379;48.888;8.330;2023-01-26T13:04:42;11.65;;;5.20;;
75768;SDS011;64379;48.888;8.330;2023-01-26T13:12:58;12.25;;;5.18;;
75768;SDS011;64379;48.888;8.330;2023-01-26T13:15:26;12.93;;;5.32;;
75768;SDS011;64379;48.888;8.330;2023-01-26T13:26:11;11.80;;;5.13;;
75768;SDS011;64379;48.888;8.330;2023-01-26T13:28:39;11.90;;;4.88;;
75768;SDS011;64379;48.888;8.330;2023-01-26T13:31:06;11.88;;;5.10;;
75768;SDS011;64379;48.888;8.330;2023-01-26T13:33:34;11.65;;;4.90;;
75768;SDS011;64379;48.888;8.330;2023-01-26T13:36:03;10.25;;;4.88;;
75768;SDS011;64379;48.888;8.330;2023-01-26T13:38:38;10.82;;;4.93;;
75768;SDS011;64379;48.888;8.330;2023-01-26T13:41:07;11.80;;;5.05;;
75768;SDS011;64379;48.888;8.330;2023-01-26T13:43:51;9.45;;;4.40;;
75768;SDS011;64379;48.888;8.330;2023-01-26T13:46:35;7.65;;;3.72;;
75768;SDS011;64379;48.888;8.330;2023-01-26T13:49:04;8.40;;;3.97;;
75768;SDS011;64379;48.888;8.330;2023-01-26T13:51:31;9.68;;;4.15;;
75768;SDS011;64379;48.888;8.330;2023-01-26T13:54:12;8.98;;;3.92;;
75768;SDS011;64379;48.888;8.330;2023-01-26T13:59:25;10.75;;;4.43;;
75768;SDS011;64379;48.888;8.330;2023-01-26T14:01:51;9.00;;;3.92;;
75768;SDS011;64379;48.888;8.330;2023-01-26T14:04:22;9.38;;;3.95;;
75768;SDS011;64379;48.888;8.330;2023-01-26T14:09:20;7.90;;;3.42;;
75768;SDS011;64379;48.888;8.330;2023-01-26T14:11:59;9.18;;;3.78;;
75768;SDS011;64379;48.888;8.330;2023-01-26T14:14:28;8.30;;;3.47;;
75768;SDS011;64379;48.888;8.330;2023-01-26T14:16:57;7.85;;;3.55;;
75768;SDS011;64379;48.888;8.330;2023-01-26T14:19:23;8.05;;;3.80;;
75768;SDS011;64379;48.888;8.330;2023-01-26T14:21:58;8.32;;;3.75;;
75768;SDS011;64379;48.888;8.330;2023-01-26T14:26:53;8.52;;;3.70;;
75768;SDS011;64379;48.888;8.330;2023-01-26T14:29:20;11.20;;;3.47;;
75768;SDS011;64379;48.888;8.330;2023-01-26T14:31:48;10.18;;;4.00;;
75768;SDS011;64379;48.888;8.330;2023-01-26T14:34:19;10.65;;;3.78;;
75768;SDS011;64379;48.888;8.330;2023-01-26T14:36:46;7.63;;;4.00;;
75768;SDS011;64379;48.888;8.330;2023-01-26T14:39:16;7.88;;;3.42;;
75768;SDS011;64379;48.888;8.330;2023-01-26T14:41:45;9.52;;;4.30;;
75768;SDS011;64379;48.888;8.330;2023-01-26T14:44:12;8.20;;;3.92;;
75768;SDS011;64379;48.888;8.330;2023-01-26T14:52:16;10.27;;;4.50;;
75768;SDS011;64379;48.888;8.330;2023-01-26T14:55:06;7.50;;;3.50;;
75768;SDS011;64379;48.888;8.330;2023-01-26T14:57:42;8.70;;;3.80;;
75768;SDS011;64379;48.888;8.330;2023-01-26T15:00:29;7.53;;;3.92;;
75768;SDS011;64379;48.888;8.330;2023-01-26T15:02:57;9.98;;;4.43;;
75768;SDS011;64379;48.888;8.330;2023-01-26T15:05:32;10.10;;;4.90;;
75768;SDS011;64379;48.888;8.330;2023-01-26T15:08:04;21.52;;;5.47;;
75768;SDS011;64379;48.888;8.330;2023-01-26T15:10:42;10.52;;;5.38;;
75768;SDS011;64379;48.888;8.330;2023-01-26T15:13:19;10.85;;;5.45;;
75768;SDS011;64379;48.888;8.330;2023-01-26T15:16:00;10.32;;;4.97;;
75768;SDS011;64379;48.888;8.330;2023-01-26T15:18:31;8.15;;;4.32;;
75768;SDS011;64379;48.888;8.330;2023-01-26T15:23:36;11.40;;;5.57;;
75768;SDS011;64379;48.888;8.330;2023-01-26T15:26:06;11.93;;;5.65;;
75768;SDS011;64379;48.888;8.330;2023-01-26T15:28:34;10.90;;;5.82;;
75768;SDS011;64379;48.888;8.330;2023-01-26T15:31:01;11.95;;;5.60;;
75768;SDS011;64379;48.888;8.330;2023-01-26T15:33:46;10.27;;;5.50;;
75768;SDS011;64379;48.888;8.330;2023-01-26T15:36:47;10.70;;;5.60;;
75768;SDS011;64379;48.888;8.330;2023-01-26T15:39:13;12.75;;;5.57;;
75768;SDS011;64379;48.888;8.330;2023-01-26T15:41:40;10.02;;;5.35;;
75768;SDS011;64379;48.888;8.330;2023-01-26T15:44:10;11.57;;;6.00;;
75768;SDS011;64379;48.888;8.330;2023-01-26T15:46:42;15.30;;;6.57;;
75768;SDS011;64379;48.888;8.330;2023-01-26T15:49:08;12.52;;;5.03;;
75768;SDS011;64379;48.888;8.330;2023-01-26T15:51:35;11.88;;;5.30;;
75768;SDS011;64379;48.888;8.330;2023-01-26T15:54:01;12.88;;;6.05;;
75768;SDS011;64379;48.888;8.330;2023-01-26T15:56:27;11.55;;;6.00;;
75768;SDS011;64379;48.888;8.330;2023-01-26T15:58:52;10.55;;;4.88;;
75768;SDS011;64379;48.888;8.330;2023-01-26T16:01:19;11.13;;;5.43;;
75768;SDS011;64379;48.888;8.330;2023-01-26T16:03:46;13.30;;;5.85;;
75768;SDS011;64379;48.888;8.330;2023-01-26T16:06:21;10.88;;;5.25;;
75768;SDS011;64379;48.888;8.330;2023-01-26T16:08:57;11.95;;;6.18;;
75768;SDS011;64379;48.888;8.330;2023-01-26T16:11:33;15.50;;;5.85;;
75768;SDS011;64379;48.888;8.330;2023-01-26T16:14:01;13.20;;;5.85;;
75768;SDS011;64379;48.888;8.330;2023-01-26T16:16:27;10.50;;;5.05;;
75768;SDS011;64379;48.888;8.330;2023-01-26T16:18:53;12.38;;;5.85;;
75768;SDS011;64379;48.888;8.330;2023-01-26T16:21:20;13.32;;;5.97;;
75768;SDS011;64379;48.888;8.330;2023-01-26T16:23:48;11.70;;;5.38;;
75768;SDS011;64379;48.888;8.330;2023-01-26T16:26:15;12.05;;;6.13;;
75768;SDS011;64379;48.888;8.330;2023-01-26T16:28:43;13.63;;;5.30;;
75768;SDS011;64379;48.888;8.330;2023-01-26T16:31:42;14.77;;;5.88;;
75768;SDS011;64379;48.888;8.330;2023-01-26T16:34:01;13.30;;;6.47;;